Oak Hill, Texas
Current Conditions -  °F | °C
As of 5:51 PM on Sunday 21 Dec 2014 (Local Time) from KATT Reporting Station
Overcast Overcast  
Wind Chill: 55°   Ceiling: 1300
Heat Index: 55°   Visibility: 10mi
Dew Point: 51°   Wind: 5mph
Humidity: 86%   Direction: NA
Pressure: 29.89"   Gusts: NA
Location:  30.265°N, 97.9624°W
Report Text: KATT 212351Z AUTO VRB04KT 10SM OVC013 13/11 A2989 RMK AO2 SLP121 T01280106 10133 20117 55008
Loading
Personal Weather Stations






























Interactive Weather Map New forecast layout! Learn more

10-Day Weather Forecast

Advertisements
Track Severe Weather on mobile